sensor_id;sensor_type;location;lat;lon;timestamp;temperature;humidity
70368;DHT22;57789;53.868;10.728;2023-07-13T00:00:04;17.20;99.90
70368;DHT22;57789;53.868;10.728;2023-07-13T00:02:34;17.20;99.90
70368;DHT22;57789;53.868;10.728;2023-07-13T00:05:00;17.20;99.90
70368;DHT22;57789;53.868;10.728;2023-07-13T00:07:26;17.20;99.90
70368;DHT22;57789;53.868;10.728;2023-07-13T00:09:52;17.40;99.90
70368;DHT22;57789;53.868;10.728;2023-07-13T00:12:29;17.50;99.90
70368;DHT22;57789;53.868;10.728;2023-07-13T00:14:59;17.40;99.90
70368;DHT22;57789;53.868;10.728;2023-07-13T00:17:26;17.30;99.90
70368;DHT22;57789;53.868;10.728;2023-07-13T00:19:52;17.20;99.90
70368;DHT22;57789;53.868;10.728;2023-07-13T00:22:19;17.00;99.90
70368;DHT22;57789;53.868;10.728;2023-07-13T00:24:45;16.90;99.90
70368;DHT22;57789;53.868;10.728;2023-07-13T00:27:11;16.80;99.90
70368;DHT22;57789;53.868;10.728;2023-07-13T00:29:37;16.90;99.90
70368;DHT22;57789;53.868;10.728;2023-07-13T00:32:04;16.80;99.90
70368;DHT22;57789;53.868;10.728;2023-07-13T00:34:30;16.90;99.90
70368;DHT22;57789;53.868;10.728;2023-07-13T00:36:56;16.90;99.90
70368;DHT22;57789;53.868;10.728;2023-07-13T00:39:22;16.90;99.90
70368;DHT22;57789;53.868;10.728;2023-07-13T00:41:48;16.80;99.90
70368;DHT22;57789;53.868;10.728;2023-07-13T00:44:15;16.80;99.90
70368;DHT22;57789;53.868;10.728;2023-07-13T00:46:42;16.60;99.90
70368;DHT22;57789;53.868;10.728;2023-07-13T00:49:16;16.60;99.90
70368;DHT22;57789;53.868;10.728;2023-07-13T00:54:14;16.90;99.90
70368;DHT22;57789;53.868;10.728;2023-07-13T00:56:41;16.80;99.90
70368;DHT22;57789;53.868;10.728;2023-07-13T00:59:10;16.80;99.90
70368;DHT22;57789;53.868;10.728;2023-07-13T01:01:37;16.70;99.90
70368;DHT22;57789;53.868;10.728;2023-07-13T01:04:03;16.80;99.90
70368;DHT22;57789;53.868;10.728;2023-07-13T01:06:29;16.90;99.90
70368;DHT22;57789;53.868;10.728;2023-07-13T01:08:56;17.00;99.90
70368;DHT22;57789;53.868;10.728;2023-07-13T01:11:23;17.00;99.90
70368;DHT22;57789;53.868;10.728;2023-07-13T01:13:49;17.00;99.90
70368;DHT22;57789;53.868;10.728;2023-07-13T01:16:29;17.10;99.90
70368;DHT22;57789;53.868;10.728;2023-07-13T01:18:56;17.10;99.90
70368;DHT22;57789;53.868;10.728;2023-07-13T01:21:25;17.10;99.90
70368;DHT22;57789;53.868;10.728;2023-07-13T01:23:52;17.10;99.90
70368;DHT22;57789;53.868;10.728;2023-07-13T01:26:18;17.10;99.90
70368;DHT22;57789;53.868;10.728;2023-07-13T01:28:43;17.00;99.90
70368;DHT22;57789;53.868;10.728;2023-07-13T01:31:10;17.00;99.90
70368;DHT22;57789;53.868;10.728;2023-07-13T01:33:38;16.90;99.90
70368;DHT22;57789;53.868;10.728;2023-07-13T01:36:08;16.90;99.90
70368;DHT22;57789;53.868;10.728;2023-07-13T01:38:35;16.80;99.90
70368;DHT22;57789;53.868;10.728;2023-07-13T01:41:01;16.80;99.90
70368;DHT22;57789;53.868;10.728;2023-07-13T01:43:27;16.70;99.90
70368;DHT22;57789;53.868;10.728;2023-07-13T01:45:53;16.60;99.90
70368;DHT22;57789;53.868;10.728;2023-07-13T01:48:18;16.30;99.90
70368;DHT22;57789;53.868;10.728;2023-07-13T01:50:47;16.20;99.90
70368;DHT22;57789;53.868;10.728;2023-07-13T01:53:12;16.30;99.90
70368;DHT22;57789;53.868;10.728;2023-07-13T01:55:38;16.20;99.90
70368;DHT22;57789;53.868;10.728;2023-07-13T01:58:05;16.00;99.90
70368;DHT22;57789;53.868;10.728;2023-07-13T02:00:31;15.80;99.90
70368;DHT22;57789;53.868;10.728;2023-07-13T02:02:57;15.70;99.90
70368;DHT22;57789;53.868;10.728;2023-07-13T02:05:22;15.70;99.90
70368;DHT22;57789;53.868;10.728;2023-07-13T02:07:48;15.90;99.90
70368;DHT22;57789;53.868;10.728;2023-07-13T02:10:14;15.90;99.90
70368;DHT22;57789;53.868;10.728;2023-07-13T02:12:41;15.90;99.90
70368;DHT22;57789;53.868;10.728;2023-07-13T02:15:08;15.80;99.90
70368;DHT22;57789;53.868;10.728;2023-07-13T02:17:35;15.70;99.90
70368;DHT22;57789;53.868;10.728;2023-07-13T02:20:02;15.90;99.90
70368;DHT22;57789;53.868;10.728;2023-07-13T02:22:28;16.00;99.90
70368;DHT22;57789;53.868;10.728;2023-07-13T02:24:54;16.10;99.90
70368;DHT22;57789;53.868;10.728;2023-07-13T02:27:20;16.00;99.90
70368;DHT22;57789;53.868;10.728;2023-07-13T02:29:45;16.00;99.90
70368;DHT22;57789;53.868;10.728;2023-07-13T02:32:12;16.00;99.90
70368;DHT22;57789;53.868;10.728;2023-07-13T02:34:40;16.00;99.90
70368;DHT22;57789;53.868;10.728;2023-07-13T02:37:07;16.10;99.90
70368;DHT22;57789;53.868;10.728;2023-07-13T02:39:32;16.20;99.90
70368;DHT22;57789;53.868;10.728;2023-07-13T02:41:59;16.30;99.90
70368;DHT22;57789;53.868;10.728;2023-07-13T02:44:26;16.30;99.90
70368;DHT22;57789;53.868;10.728;2023-07-13T02:46:51;16.30;99.90
70368;DHT22;57789;53.868;10.728;2023-07-13T02:49:17;16.10;99.90
70368;DHT22;57789;53.868;10.728;2023-07-13T02:51:42;15.90;99.90
70368;DHT22;57789;53.868;10.728;2023-07-13T02:54:09;15.80;99.90
70368;DHT22;57789;53.868;10.728;2023-07-13T02:56:35;15.80;99.90
70368;DHT22;57789;53.868;10.728;2023-07-13T02:59:01;15.90;99.90
70368;DHT22;57789;53.868;10.728;2023-07-13T03:01:28;15.90;99.90
70368;DHT22;57789;53.868;10.728;2023-07-13T03:03:53;15.90;99.90
70368;DHT22;57789;53.868;10.728;2023-07-13T03:06:19;16.00;99.90
70368;DHT22;57789;53.868;10.728;2023-07-13T03:08:47;15.80;99.90
70368;DHT22;57789;53.868;10.728;2023-07-13T03:11:16;15.90;99.90
70368;DHT22;57789;53.868;10.728;2023-07-13T03:13:43;16.00;99.90
70368;DHT22;57789;53.868;10.728;2023-07-13T03:16:10;15.90;99.90
70368;DHT22;57789;53.868;10.728;2023-07-13T03:18:36;16.00;99.90
70368;DHT22;57789;53.868;10.728;2023-07-13T03:21:06;16.00;99.90
70368;DHT22;57789;53.868;10.728;2023-07-13T03:23:32;16.00;99.90
70368;DHT22;57789;53.868;10.728;2023-07-13T03:26:10;16.00;99.90
70368;DHT22;57789;53.868;10.728;2023-07-13T03:28:38;16.00;99.90
70368;DHT22;57789;53.868;10.728;2023-07-13T03:31:08;15.90;99.90
70368;DHT22;57789;53.868;10.728;2023-07-13T03:33:34;15.70;99.90
70368;DHT22;57789;53.868;10.728;2023-07-13T03:36:00;15.70;99.90
70368;DHT22;57789;53.868;10.728;2023-07-13T03:38:26;15.60;99.90
70368;DHT22;57789;53.868;10.728;2023-07-13T03:40:52;15.60;99.90
70368;DHT22;57789;53.868;10.728;2023-07-13T03:43:18;15.50;99.90
70368;DHT22;57789;53.868;10.728;2023-07-13T03:45:46;15.60;99.90
70368;DHT22;57789;53.868;10.728;2023-07-13T03:48:12;15.50;99.90
70368;DHT22;57789;53.868;10.728;2023-07-13T03:50:37;15.50;99.90
70368;DHT22;57789;53.868;10.728;2023-07-13T03:53:04;15.60;99.90
70368;DHT22;57789;53.868;10.728;2023-07-13T03:55:29;15.60;99.90
70368;DHT22;57789;53.868;10.728;2023-07-13T04:00:50;15.70;99.90
70368;DHT22;57789;53.868;10.728;2023-07-13T04:03:15;15.70;99.90
70368;DHT22;57789;53.868;10.728;2023-07-13T04:05:42;15.70;99.90
70368;DHT22;57789;53.868;10.728;2023-07-13T04:08:07;15.70;99.90
70368;DHT22;57789;53.868;10.728;2023-07-13T04:10:33;15.80;99.90
70368;DHT22;57789;53.868;10.728;2023-07-13T04:12:58;15.80;99.90
70368;DHT22;57789;53.868;10.728;2023-07-13T04:15:24;15.80;99.90
70368;DHT22;57789;53.868;10.728;2023-07-13T04:17:50;15.80;99.90
70368;DHT22;57789;53.868;10.728;2023-07-13T04:20:15;15.80;99.90
70368;DHT22;57789;53.868;10.728;2023-07-13T04:22:41;15.90;99.90
70368;DHT22;57789;53.868;10.728;2023-07-13T04:25:08;15.90;99.90
70368;DHT22;57789;53.868;10.728;2023-07-13T04:27:34;16.00;99.90
70368;DHT22;57789;53.868;10.728;2023-07-13T04:29:59;16.00;99.90
70368;DHT22;57789;53.868;10.728;2023-07-13T04:32:25;16.10;99.90
70368;DHT22;57789;53.868;10.728;2023-07-13T04:34:51;16.20;99.90
70368;DHT22;57789;53.868;10.728;2023-07-13T04:37:19;16.20;99.90
70368;DHT22;57789;53.868;10.728;2023-07-13T04:39:45;16.30;99.90
70368;DHT22;57789;53.868;10.728;2023-07-13T04:42:11;16.40;99.90
70368;DHT22;57789;53.868;10.728;2023-07-13T04:44:36;16.40;99.90
70368;DHT22;57789;53.868;10.728;2023-07-13T04:47:03;16.50;99.90
70368;DHT22;57789;53.868;10.728;2023-07-13T04:49:29;16.60;99.90
70368;DHT22;57789;53.868;10.728;2023-07-13T04:51:55;16.60;99.90
70368;DHT22;57789;53.868;10.728;2023-07-13T04:54:21;16.70;99.90
70368;DHT22;57789;53.868;10.728;2023-07-13T04:56:47;16.70;99.90
70368;DHT22;57789;53.868;10.728;2023-07-13T04:59:13;16.80;99.90
70368;DHT22;57789;53.868;10.728;2023-07-13T05:01:39;17.00;99.90
70368;DHT22;57789;53.868;10.728;2023-07-13T05:04:06;17.00;99.90
70368;DHT22;57789;53.868;10.728;2023-07-13T05:06:32;17.00;99.90
70368;DHT22;57789;53.868;10.728;2023-07-13T05:08:57;17.00;99.90
70368;DHT22;57789;53.868;10.728;2023-07-13T05:11:24;17.00;99.90
70368;DHT22;57789;53.868;10.728;2023-07-13T05:13:50;17.10;99.90
70368;DHT22;57789;53.868;10.728;2023-07-13T05:16:15;17.00;99.90
70368;DHT22;57789;53.868;10.728;2023-07-13T05:18:41;16.90;99.90
70368;DHT22;57789;53.868;10.728;2023-07-13T05:21:09;16.90;99.90
70368;DHT22;57789;53.868;10.728;2023-07-13T05:23:36;16.90;99.90
70368;DHT22;57789;53.868;10.728;2023-07-13T05:26:03;16.90;99.90
70368;DHT22;57789;53.868;10.728;2023-07-13T05:28:31;17.00;99.90
70368;DHT22;57789;53.868;10.728;2023-07-13T05:30:57;16.90;99.90
70368;DHT22;57789;53.868;10.728;2023-07-13T05:33:23;17.00;99.90
70368;DHT22;57789;53.868;10.728;2023-07-13T05:35:49;17.00;99.90
70368;DHT22;57789;53.868;10.728;2023-07-13T05:38:14;17.00;99.90
70368;DHT22;57789;53.868;10.728;2023-07-13T05:40:43;17.00;99.90
70368;DHT22;57789;53.868;10.728;2023-07-13T05:43:09;17.00;99.90
70368;DHT22;57789;53.868;10.728;2023-07-13T05:45:34;17.10;99.90
70368;DHT22;57789;53.868;10.728;2023-07-13T05:48:00;17.10;99.90
70368;DHT22;57789;53.868;10.728;2023-07-13T05:50:26;17.10;99.90
70368;DHT22;57789;53.868;10.728;2023-07-13T05:52:52;17.20;99.90
70368;DHT22;57789;53.868;10.728;2023-07-13T05:55:19;17.20;99.90
70368;DHT22;57789;53.868;10.728;2023-07-13T05:57:44;17.20;99.90
70368;DHT22;57789;53.868;10.728;2023-07-13T06:00:11;17.30;99.90
70368;DHT22;57789;53.868;10.728;2023-07-13T06:02:37;17.40;99.90
70368;DHT22;57789;53.868;10.728;2023-07-13T06:05:03;17.50;99.90
70368;DHT22;57789;53.868;10.728;2023-07-13T06:07:29;17.50;99.90
70368;DHT22;57789;53.868;10.728;2023-07-13T06:09:54;17.50;99.90
70368;DHT22;57789;53.868;10.728;2023-07-13T06:12:20;17.60;99.90
70368;DHT22;57789;53.868;10.728;2023-07-13T06:14:46;17.70;99.90
70368;DHT22;57789;53.868;10.728;2023-07-13T06:17:11;17.70;99.90
70368;DHT22;57789;53.868;10.728;2023-07-13T06:19:37;17.70;99.90
70368;DHT22;57789;53.868;10.728;2023-07-13T06:22:03;17.70;99.90
70368;DHT22;57789;53.868;10.728;2023-07-13T06:24:29;17.80;99.90
70368;DHT22;57789;53.868;10.728;2023-07-13T06:26:54;17.90;99.90
70368;DHT22;57789;53.868;10.728;2023-07-13T06:29:20;18.00;99.90
70368;DHT22;57789;53.868;10.728;2023-07-13T06:31:45;18.00;99.90
70368;DHT22;57789;53.868;10.728;2023-07-13T06:34:11;18.20;99.90
70368;DHT22;57789;53.868;10.728;2023-07-13T06:36:37;18.30;99.90
70368;DHT22;57789;53.868;10.728;2023-07-13T06:39:04;18.50;99.90
70368;DHT22;57789;53.868;10.728;2023-07-13T06:41:31;18.60;99.90
70368;DHT22;57789;53.868;10.728;2023-07-13T06:43:58;18.60;99.90
70368;DHT22;57789;53.868;10.728;2023-07-13T06:46:24;18.70;99.90
70368;DHT22;57789;53.868;10.728;2023-07-13T06:48:50;18.90;99.90
70368;DHT22;57789;53.868;10.728;2023-07-13T06:51:16;19.20;99.90
70368;DHT22;57789;53.868;10.728;2023-07-13T06:53:42;19.50;99.90
70368;DHT22;57789;53.868;10.728;2023-07-13T06:56:09;19.40;99.90
70368;DHT22;57789;53.868;10.728;2023-07-13T06:58:36;19.40;99.90
70368;DHT22;57789;53.868;10.728;2023-07-13T07:01:03;19.30;99.90
70368;DHT22;57789;53.868;10.728;2023-07-13T07:03:29;19.30;99.90
70368;DHT22;57789;53.868;10.728;2023-07-13T07:06:01;19.30;99.90
70368;DHT22;57789;53.868;10.728;2023-07-13T07:08:26;19.40;99.90
70368;DHT22;57789;53.868;10.728;2023-07-13T07:10:52;19.30;99.90
70368;DHT22;57789;53.868;10.728;2023-07-13T07:13:19;19.10;99.90
70368;DHT22;57789;53.868;10.728;2023-07-13T07:15:45;19.00;99.90
70368;DHT22;57789;53.868;10.728;2023-07-13T07:18:11;18.90;99.90
70368;DHT22;57789;53.868;10.728;2023-07-13T07:20:36;19.00;99.90
70368;DHT22;57789;53.868;10.728;2023-07-13T07:23:03;18.90;99.90
70368;DHT22;57789;53.868;10.728;2023-07-13T07:25:28;18.90;99.90
70368;DHT22;57789;53.868;10.728;2023-07-13T07:27:57;18.90;99.90
70368;DHT22;57789;53.868;10.728;2023-07-13T07:30:23;18.80;99.90
70368;DHT22;57789;53.868;10.728;2023-07-13T07:32:49;18.70;99.90
70368;DHT22;57789;53.868;10.728;2023-07-13T07:35:15;18.70;99.90
70368;DHT22;57789;53.868;10.728;2023-07-13T07:37:40;18.70;99.90
70368;DHT22;57789;53.868;10.728;2023-07-13T07:40:07;18.80;99.90
70368;DHT22;57789;53.868;10.728;2023-07-13T07:42:33;18.90;99.90
70368;DHT22;57789;53.868;10.728;2023-07-13T07:44:59;19.10;99.90
70368;DHT22;57789;53.868;10.728;2023-07-13T07:47:26;19.00;99.90
70368;DHT22;57789;53.868;10.728;2023-07-13T07:49:52;19.10;99.90
70368;DHT22;57789;53.868;10.728;2023-07-13T07:52:18;19.20;99.90
70368;DHT22;57789;53.868;10.728;2023-07-13T07:54:44;19.20;99.90
70368;DHT22;57789;53.868;10.728;2023-07-13T07:57:09;19.20;99.90
70368;DHT22;57789;53.868;10.728;2023-07-13T07:59:36;19.10;99.90
70368;DHT22;57789;53.868;10.728;2023-07-13T08:02:02;19.20;99.90
70368;DHT22;57789;53.868;10.728;2023-07-13T08:04:28;19.30;99.90
70368;DHT22;57789;53.868;10.728;2023-07-13T08:06:54;19.40;99.90
70368;DHT22;57789;53.868;10.728;2023-07-13T08:09:21;19.40;99.90
70368;DHT22;57789;53.868;10.728;2023-07-13T08:11:47;19.40;99.90
70368;DHT22;57789;53.868;10.728;2023-07-13T08:14:13;19.40;99.90
70368;DHT22;57789;53.868;10.728;2023-07-13T08:16:39;19.30;99.90
70368;DHT22;57789;53.868;10.728;2023-07-13T08:19:05;19.20;99.90
70368;DHT22;57789;53.868;10.728;2023-07-13T08:21:31;19.30;99.90
70368;DHT22;57789;53.868;10.728;2023-07-13T08:23:57;19.40;99.90
70368;DHT22;57789;53.868;10.728;2023-07-13T08:26:23;19.50;99.90
70368;DHT22;57789;53.868;10.728;2023-07-13T08:28:49;19.60;99.90
70368;DHT22;57789;53.868;10.728;2023-07-13T08:31:15;19.60;99.90
70368;DHT22;57789;53.868;10.728;2023-07-13T08:33:40;19.70;99.90
70368;DHT22;57789;53.868;10.728;2023-07-13T08:36:06;19.80;99.90
70368;DHT22;57789;53.868;10.728;2023-07-13T08:38:33;19.70;99.90
70368;DHT22;57789;53.868;10.728;2023-07-13T08:40:59;19.80;99.90
70368;DHT22;57789;53.868;10.728;2023-07-13T08:43:36;19.70;99.90
70368;DHT22;57789;53.868;10.728;2023-07-13T08:46:08;19.80;99.90
70368;DHT22;57789;53.868;10.728;2023-07-13T08:48:48;19.60;99.90
70368;DHT22;57789;53.868;10.728;2023-07-13T08:53:56;19.50;99.90
70368;DHT22;57789;53.868;10.728;2023-07-13T08:56:26;19.60;99.90
70368;DHT22;57789;53.868;10.728;2023-07-13T08:59:09;19.60;99.90
70368;DHT22;57789;53.868;10.728;2023-07-13T09:04:40;19.60;99.90
70368;DHT22;57789;53.868;10.728;2023-07-13T09:14:50;19.70;99.90
70368;DHT22;57789;53.868;10.728;2023-07-13T09:17:40;19.80;99.90
70368;DHT22;57789;53.868;10.728;2023-07-13T09:20:22;20.10;99.90
70368;DHT22;57789;53.868;10.728;2023-07-13T09:22:49;20.20;99.90
70368;DHT22;57789;53.868;10.728;2023-07-13T09:25:35;20.40;99.90
70368;DHT22;57789;53.868;10.728;2023-07-13T09:28:17;20.60;99.90
70368;DHT22;57789;53.868;10.728;2023-07-13T09:31:30;20.60;99.90
70368;DHT22;57789;53.868;10.728;2023-07-13T09:33:38;20.80;99.90
70368;DHT22;57789;53.868;10.728;2023-07-13T09:36:22;20.90;99.90
70368;DHT22;57789;53.868;10.728;2023-07-13T09:41:46;21.50;99.90
70368;DHT22;57789;53.868;10.728;2023-07-13T09:44:15;21.90;99.90
70368;DHT22;57789;53.868;10.728;2023-07-13T09:46:47;22.00;99.90
70368;DHT22;57789;53.868;10.728;2023-07-13T09:49:18;22.20;99.90
70368;DHT22;57789;53.868;10.728;2023-07-13T09:51:44;22.00;99.90
70368;DHT22;57789;53.868;10.728;2023-07-13T09:54:24;21.90;99.90
70368;DHT22;57789;53.868;10.728;2023-07-13T09:57:00;21.90;99.90
70368;DHT22;57789;53.868;10.728;2023-07-13T09:59:31;21.70;99.90
70368;DHT22;57789;53.868;10.728;2023-07-13T10:01:57;21.80;99.90
70368;DHT22;57789;53.868;10.728;2023-07-13T10:04:29;21.70;99.90
70368;DHT22;57789;53.868;10.728;2023-07-13T10:07:09;21.90;99.90
70368;DHT22;57789;53.868;10.728;2023-07-13T10:09:35;22.30;99.90
70368;DHT22;57789;53.868;10.728;2023-07-13T10:12:01;22.60;99.90
70368;DHT22;57789;53.868;10.728;2023-07-13T10:14:27;22.80;99.90
70368;DHT22;57789;53.868;10.728;2023-07-13T10:17:01;22.50;99.90
70368;DHT22;57789;53.868;10.728;2023-07-13T10:19:32;22.30;99.90
70368;DHT22;57789;53.868;10.728;2023-07-13T10:22:03;22.20;99.90
70368;DHT22;57789;53.868;10.728;2023-07-13T10:24:37;22.00;99.90
70368;DHT22;57789;53.868;10.728;2023-07-13T10:27:19;21.70;99.90
70368;DHT22;57789;53.868;10.728;2023-07-13T10:29:50;21.40;99.90
70368;DHT22;57789;53.868;10.728;2023-07-13T10:32:19;21.40;99.90
70368;DHT22;57789;53.868;10.728;2023-07-13T10:34:47;21.40;99.90
70368;DHT22;57789;53.868;10.728;2023-07-13T10:37:24;21.70;99.90
70368;DHT22;57789;53.868;10.728;2023-07-13T10:39:53;21.90;99.90
70368;DHT22;57789;53.868;10.728;2023-07-13T10:42:32;21.90;99.90
70368;DHT22;57789;53.868;10.728;2023-07-13T10:45:00;21.80;99.90
70368;DHT22;57789;53.868;10.728;2023-07-13T10:47:27;22.10;99.90
70368;DHT22;57789;53.868;10.728;2023-07-13T10:49:57;22.20;99.90
70368;DHT22;57789;53.868;10.728;2023-07-13T10:52:49;22.20;99.90
70368;DHT22;57789;53.868;10.728;2023-07-13T10:55:55;22.20;99.90
70368;DHT22;57789;53.868;10.728;2023-07-13T10:58:22;22.40;99.90
70368;DHT22;57789;53.868;10.728;2023-07-13T11:03:36;22.60;99.90
70368;DHT22;57789;53.868;10.728;2023-07-13T11:21:34;22.50;99.90
70368;DHT22;57789;53.868;10.728;2023-07-13T11:31:58;21.00;99.90
70368;DHT22;57789;53.868;10.728;2023-07-13T11:34:36;20.60;99.90
70368;DHT22;57789;53.868;10.728;2023-07-13T11:37:02;20.30;99.90
70368;DHT22;57789;53.868;10.728;2023-07-13T11:39:33;19.90;99.90
70368;DHT22;57789;53.868;10.728;2023-07-13T11:42:05;19.90;99.90
70368;DHT22;57789;53.868;10.728;2023-07-13T11:44:33;19.90;99.90
70368;DHT22;57789;53.868;10.728;2023-07-13T11:47:11;19.70;99.90
70368;DHT22;57789;53.868;10.728;2023-07-13T11:49:50;19.70;99.90
70368;DHT22;57789;53.868;10.728;2023-07-13T11:52:21;19.70;99.90
70368;DHT22;57789;53.868;10.728;2023-07-13T11:54:52;19.70;99.90
70368;DHT22;57789;53.868;10.728;2023-07-13T11:57:29;19.70;99.90
70368;DHT22;57789;53.868;10.728;2023-07-13T12:00:09;19.70;99.90
70368;DHT22;57789;53.868;10.728;2023-07-13T12:02:39;19.50;99.90
70368;DHT22;57789;53.868;10.728;2023-07-13T12:05:08;19.10;99.90
70368;DHT22;57789;53.868;10.728;2023-07-13T12:07:35;19.00;99.90
70368;DHT22;57789;53.868;10.728;2023-07-13T12:10:24;19.00;99.90
70368;DHT22;57789;53.868;10.728;2023-07-13T12:12:54;18.90;99.90
70368;DHT22;57789;53.868;10.728;2023-07-13T12:15:22;18.90;99.90
70368;DHT22;57789;53.868;10.728;2023-07-13T12:17:48;19.00;99.90
70368;DHT22;57789;53.868;10.728;2023-07-13T12:20:25;19.20;99.90
70368;DHT22;57789;53.868;10.728;2023-07-13T12:22:52;19.20;99.90
70368;DHT22;57789;53.868;10.728;2023-07-13T12:25:19;19.30;99.90
70368;DHT22;57789;53.868;10.728;2023-07-13T12:27:50;19.60;99.90
70368;DHT22;57789;53.868;10.728;2023-07-13T12:33:00;20.90;99.90
70368;DHT22;57789;53.868;10.728;2023-07-13T12:35:29;20.90;99.90
70368;DHT22;57789;53.868;10.728;2023-07-13T12:37:57;20.50;99.90
70368;DHT22;57789;53.868;10.728;2023-07-13T12:40:32;20.40;99.90
70368;DHT22;57789;53.868;10.728;2023-07-13T12:42:58;20.40;99.90
70368;DHT22;57789;53.868;10.728;2023-07-13T12:45:26;20.30;99.90
70368;DHT22;57789;53.868;10.728;2023-07-13T12:47:59;20.20;99.90
70368;DHT22;57789;53.868;10.728;2023-07-13T12:50:30;20.40;99.90
70368;DHT22;57789;53.868;10.728;2023-07-13T12:53:01;20.50;99.90
70368;DHT22;57789;53.868;10.728;2023-07-13T12:55:29;20.70;99.90
70368;DHT22;57789;53.868;10.728;2023-07-13T12:57:58;20.70;99.90
70368;DHT22;57789;53.868;10.728;2023-07-13T13:00:31;20.70;99.90
70368;DHT22;57789;53.868;10.728;2023-07-13T13:03:06;20.50;99.90
70368;DHT22;57789;53.868;10.728;2023-07-13T13:05:33;20.40;99.90
70368;DHT22;57789;53.868;10.728;2023-07-13T13:07:59;20.00;99.90
70368;DHT22;57789;53.868;10.728;2023-07-13T13:10:25;19.60;99.90
70368;DHT22;57789;53.868;10.728;2023-07-13T13:12:52;19.10;99.90
70368;DHT22;57789;53.868;10.728;2023-07-13T13:15:18;18.80;99.90
70368;DHT22;57789;53.868;10.728;2023-07-13T13:17:44;18.60;99.90
70368;DHT22;57789;53.868;10.728;2023-07-13T13:20:20;18.40;99.90
70368;DHT22;57789;53.868;10.728;2023-07-13T13:22:46;18.20;99.90
70368;DHT22;57789;53.868;10.728;2023-07-13T13:25:14;17.90;99.90
70368;DHT22;57789;53.868;10.728;2023-07-13T13:27:44;17.90;99.90
70368;DHT22;57789;53.868;10.728;2023-07-13T13:30:14;17.70;99.90
70368;DHT22;57789;53.868;10.728;2023-07-13T13:32:41;17.50;99.90
70368;DHT22;57789;53.868;10.728;2023-07-13T13:35:15;17.20;99.90
70368;DHT22;57789;53.868;10.728;2023-07-13T13:37:42;16.80;99.90
70368;DHT22;57789;53.868;10.728;2023-07-13T13:40:33;16.60;99.90
70368;DHT22;57789;53.868;10.728;2023-07-13T13:42:59;16.50;99.90
70368;DHT22;57789;53.868;10.728;2023-07-13T13:45:25;16.50;99.90
70368;DHT22;57789;53.868;10.728;2023-07-13T13:47:50;16.60;99.90
70368;DHT22;57789;53.868;10.728;2023-07-13T13:50:21;16.90;99.90
70368;DHT22;57789;53.868;10.728;2023-07-13T13:52:48;17.20;99.90
70368;DHT22;57789;53.868;10.728;2023-07-13T13:55:21;17.50;99.90
70368;DHT22;57789;53.868;10.728;2023-07-13T13:57:47;17.60;99.90
70368;DHT22;57789;53.868;10.728;2023-07-13T14:00:16;17.70;99.90
70368;DHT22;57789;53.868;10.728;2023-07-13T14:02:45;17.70;99.90
70368;DHT22;57789;53.868;10.728;2023-07-13T14:05:23;17.80;99.90
70368;DHT22;57789;53.868;10.728;2023-07-13T14:07:51;17.90;99.90
70368;DHT22;57789;53.868;10.728;2023-07-13T14:10:19;18.10;99.90
70368;DHT22;57789;53.868;10.728;2023-07-13T14:12:47;18.00;99.90
70368;DHT22;57789;53.868;10.728;2023-07-13T14:15:21;18.00;99.90
70368;DHT22;57789;53.868;10.728;2023-07-13T14:17:47;18.00;99.90
70368;DHT22;57789;53.868;10.728;2023-07-13T14:20:18;17.90;99.90
70368;DHT22;57789;53.868;10.728;2023-07-13T14:22:43;18.00;99.90
70368;DHT22;57789;53.868;10.728;2023-07-13T14:25:13;18.20;99.90
70368;DHT22;57789;53.868;10.728;2023-07-13T14:27:40;18.40;99.90
70368;DHT22;57789;53.868;10.728;2023-07-13T14:30:25;18.70;99.90
70368;DHT22;57789;53.868;10.728;2023-07-13T14:32:51;18.80;99.90
70368;DHT22;57789;53.868;10.728;2023-07-13T14:35:20;19.10;99.90
70368;DHT22;57789;53.868;10.728;2023-07-13T14:37:47;19.30;99.90
70368;DHT22;57789;53.868;10.728;2023-07-13T14:40:14;19.50;99.90
70368;DHT22;57789;53.868;10.728;2023-07-13T14:42:40;19.70;99.90
70368;DHT22;57789;53.868;10.728;2023-07-13T14:45:13;19.90;99.90
70368;DHT22;57789;53.868;10.728;2023-07-13T14:47:38;20.00;99.90
70368;DHT22;57789;53.868;10.728;2023-07-13T14:50:04;19.80;99.90
70368;DHT22;57789;53.868;10.728;2023-07-13T14:52:30;19.90;99.90
70368;DHT22;57789;53.868;10.728;2023-07-13T14:54:56;19.90;99.90
70368;DHT22;57789;53.868;10.728;2023-07-13T14:57:22;20.10;99.90
70368;DHT22;57789;53.868;10.728;2023-07-13T14:59:48;20.00;99.90
70368;DHT22;57789;53.868;10.728;2023-07-13T15:02:28;19.70;99.90
70368;DHT22;57789;53.868;10.728;2023-07-13T15:04:55;19.70;99.90
70368;DHT22;57789;53.868;10.728;2023-07-13T15:07:21;19.90;99.90
70368;DHT22;57789;53.868;10.728;2023-07-13T15:09:48;19.90;99.90
70368;DHT22;57789;53.868;10.728;2023-07-13T15:12:14;20.20;99.90
70368;DHT22;57789;53.868;10.728;2023-07-13T15:14:40;20.70;99.90
70368;DHT22;57789;53.868;10.728;2023-07-13T15:17:22;21.80;99.90
70368;DHT22;57789;53.868;10.728;2023-07-13T15:19:49;22.60;99.90
70368;DHT22;57789;53.868;10.728;2023-07-13T15:22:15;22.50;99.90
70368;DHT22;57789;53.868;10.728;2023-07-13T15:24:41;22.30;99.90
70368;DHT22;57789;53.868;10.728;2023-07-13T15:27:11;21.90;99.90
70368;DHT22;57789;53.868;10.728;2023-07-13T15:29:37;21.50;99.90
70368;DHT22;57789;53.868;10.728;2023-07-13T15:32:03;21.10;99.90
70368;DHT22;57789;53.868;10.728;2023-07-13T15:34:29;21.00;99.90
70368;DHT22;57789;53.868;10.728;2023-07-13T15:36:54;20.50;99.90
70368;DHT22;57789;53.868;10.728;2023-07-13T15:39:20;20.10;99.90
70368;DHT22;57789;53.868;10.728;2023-07-13T15:41:46;20.10;99.90
70368;DHT22;57789;53.868;10.728;2023-07-13T15:44:28;20.30;99.90
70368;DHT22;57789;53.868;10.728;2023-07-13T15:46:54;20.60;99.90
70368;DHT22;57789;53.868;10.728;2023-07-13T15:49:20;21.00;99.90
70368;DHT22;57789;53.868;10.728;2023-07-13T15:51:46;21.90;99.90
70368;DHT22;57789;53.868;10.728;2023-07-13T15:54:15;22.30;99.90
70368;DHT22;57789;53.868;10.728;2023-07-13T15:56:41;22.30;99.90
70368;DHT22;57789;53.868;10.728;2023-07-13T15:59:11;22.50;99.90
70368;DHT22;57789;53.868;10.728;2023-07-13T16:01:40;23.30;99.90
70368;DHT22;57789;53.868;10.728;2023-07-13T16:04:07;23.90;99.90
70368;DHT22;57789;53.868;10.728;2023-07-13T16:06:35;23.80;99.90
70368;DHT22;57789;53.868;10.728;2023-07-13T16:09:03;23.40;99.90
70368;DHT22;57789;53.868;10.728;2023-07-13T16:11:35;23.60;99.90